sensor_id;sensor_type;location;lat;lon;timestamp;P1;durP1;ratioP1;P2;durP2;ratioP2
66751;SDS011;53663;42.676;23.238;2023-03-23T00:01:54;25.23;;;15.27;;
66751;SDS011;53663;42.676;23.238;2023-03-23T00:04:20;23.83;;;16.55;;
66751;SDS011;53663;42.676;23.238;2023-03-23T00:06:46;24.30;;;16.05;;
66751;SDS011;53663;42.676;23.238;2023-03-23T00:09:13;23.33;;;15.55;;
66751;SDS011;53663;42.676;23.238;2023-03-23T00:11:40;22.17;;;15.00;;
66751;SDS011;53663;42.676;23.238;2023-03-23T00:14:07;24.23;;;15.10;;
66751;SDS011;53663;42.676;23.238;2023-03-23T00:16:38;20.15;;;14.05;;
66751;SDS011;53663;42.676;23.238;2023-03-23T00:19:10;21.75;;;13.40;;
66751;SDS011;53663;42.676;23.238;2023-03-23T00:21:40;20.65;;;13.52;;
66751;SDS011;53663;42.676;23.238;2023-03-23T00:26:37;27.42;;;15.85;;
66751;SDS011;53663;42.676;23.238;2023-03-23T00:29:15;25.02;;;16.85;;
66751;SDS011;53663;42.676;23.238;2023-03-23T00:31:43;27.63;;;15.45;;
66751;SDS011;53663;42.676;23.238;2023-03-23T00:34:14;23.17;;;14.68;;
66751;SDS011;53663;42.676;23.238;2023-03-23T00:36:44;22.30;;;14.60;;
66751;SDS011;53663;42.676;23.238;2023-03-23T00:39:14;25.73;;;14.27;;
66751;SDS011;53663;42.676;23.238;2023-03-23T00:41:42;21.90;;;13.55;;
66751;SDS011;53663;42.676;23.238;2023-03-23T00:44:09;22.95;;;12.27;;
66751;SDS011;53663;42.676;23.238;2023-03-23T00:46:35;19.42;;;12.75;;
66751;SDS011;53663;42.676;23.238;2023-03-23T00:49:10;18.27;;;11.57;;
66751;SDS011;53663;42.676;23.238;2023-03-23T00:51:37;16.85;;;11.48;;
66751;SDS011;53663;42.676;23.238;2023-03-23T00:54:03;21.25;;;11.98;;
66751;SDS011;53663;42.676;23.238;2023-03-23T00:56:29;17.35;;;11.82;;
66751;SDS011;53663;42.676;23.238;2023-03-23T00:58:55;21.65;;;12.88;;
66751;SDS011;53663;42.676;23.238;2023-03-23T01:01:20;21.45;;;13.27;;
66751;SDS011;53663;42.676;23.238;2023-03-23T01:03:46;21.90;;;13.32;;
66751;SDS011;53663;42.676;23.238;2023-03-23T01:06:11;19.55;;;12.73;;
66751;SDS011;53663;42.676;23.238;2023-03-23T01:08:41;17.85;;;12.07;;
66751;SDS011;53663;42.676;23.238;2023-03-23T01:11:13;17.38;;;12.35;;
66751;SDS011;53663;42.676;23.238;2023-03-23T01:13:43;17.15;;;11.15;;
66751;SDS011;53663;42.676;23.238;2023-03-23T01:16:09;19.73;;;13.32;;
66751;SDS011;53663;42.676;23.238;2023-03-23T01:18:36;17.58;;;11.48;;
66751;SDS011;53663;42.676;23.238;2023-03-23T01:21:06;23.83;;;12.48;;
66751;SDS011;53663;42.676;23.238;2023-03-23T01:23:33;18.65;;;11.60;;
66751;SDS011;53663;42.676;23.238;2023-03-23T01:26:06;20.67;;;12.55;;
66751;SDS011;53663;42.676;23.238;2023-03-23T01:28:36;19.58;;;12.82;;
66751;SDS011;53663;42.676;23.238;2023-03-23T01:31:05;17.92;;;11.90;;
66751;SDS011;53663;42.676;23.238;2023-03-23T01:33:34;20.52;;;12.82;;
66751;SDS011;53663;42.676;23.238;2023-03-23T01:36:04;19.10;;;11.98;;
66751;SDS011;53663;42.676;23.238;2023-03-23T01:38:32;16.63;;;10.88;;
66751;SDS011;53663;42.676;23.238;2023-03-23T01:40:58;19.55;;;11.60;;
66751;SDS011;53663;42.676;23.238;2023-03-23T01:43:24;18.98;;;12.23;;
66751;SDS011;53663;42.676;23.238;2023-03-23T01:45:50;20.83;;;11.98;;
66751;SDS011;53663;42.676;23.238;2023-03-23T01:48:17;20.90;;;12.75;;
66751;SDS011;53663;42.676;23.238;2023-03-23T01:53:26;17.67;;;11.38;;
66751;SDS011;53663;42.676;23.238;2023-03-23T01:55:55;20.23;;;11.50;;
66751;SDS011;53663;42.676;23.238;2023-03-23T01:58:24;18.45;;;10.90;;
66751;SDS011;53663;42.676;23.238;2023-03-23T02:00:54;30.05;;;15.82;;
66751;SDS011;53663;42.676;23.238;2023-03-23T02:03:21;20.52;;;13.35;;
66751;SDS011;53663;42.676;23.238;2023-03-23T02:05:49;21.20;;;13.55;;
66751;SDS011;53663;42.676;23.238;2023-03-23T02:08:22;24.30;;;15.25;;
66751;SDS011;53663;42.676;23.238;2023-03-23T02:10:49;20.80;;;14.05;;
66751;SDS011;53663;42.676;23.238;2023-03-23T02:13:15;19.75;;;13.60;;
66751;SDS011;53663;42.676;23.238;2023-03-23T02:15:48;27.33;;;14.32;;
66751;SDS011;53663;42.676;23.238;2023-03-23T02:21:26;27.38;;;14.75;;
66751;SDS011;53663;42.676;23.238;2023-03-23T02:24:10;22.92;;;14.98;;
66751;SDS011;53663;42.676;23.238;2023-03-23T02:26:59;23.38;;;15.18;;
66751;SDS011;53663;42.676;23.238;2023-03-23T02:29:37;26.70;;;15.60;;
66751;SDS011;53663;42.676;23.238;2023-03-23T02:32:39;24.17;;;15.05;;
66751;SDS011;53663;42.676;23.238;2023-03-23T02:38:00;24.92;;;15.80;;
66751;SDS011;53663;42.676;23.238;2023-03-23T02:40:30;29.27;;;16.48;;
66751;SDS011;53663;42.676;23.238;2023-03-23T02:43:03;29.92;;;16.95;;
66751;SDS011;53663;42.676;23.238;2023-03-23T02:45:33;27.55;;;16.80;;
66751;SDS011;53663;42.676;23.238;2023-03-23T02:48:01;29.08;;;16.67;;
66751;SDS011;53663;42.676;23.238;2023-03-23T02:50:29;29.60;;;17.15;;
66751;SDS011;53663;42.676;23.238;2023-03-23T02:52:56;27.25;;;15.77;;
66751;SDS011;53663;42.676;23.238;2023-03-23T02:55:24;25.73;;;16.70;;
66751;SDS011;53663;42.676;23.238;2023-03-23T02:57:52;27.40;;;16.33;;
66751;SDS011;53663;42.676;23.238;2023-03-23T03:00:18;26.10;;;16.02;;
66751;SDS011;53663;42.676;23.238;2023-03-23T03:02:49;31.88;;;16.00;;
66751;SDS011;53663;42.676;23.238;2023-03-23T03:05:26;29.02;;;17.20;;
66751;SDS011;53663;42.676;23.238;2023-03-23T03:07:57;24.50;;;14.95;;
66751;SDS011;53663;42.676;23.238;2023-03-23T03:10:46;24.23;;;15.43;;
66751;SDS011;53663;42.676;23.238;2023-03-23T03:13:19;27.52;;;15.93;;
66751;SDS011;53663;42.676;23.238;2023-03-23T03:15:55;23.83;;;14.68;;
66751;SDS011;53663;42.676;23.238;2023-03-23T03:18:44;22.58;;;14.95;;
66751;SDS011;53663;42.676;23.238;2023-03-23T03:21:35;25.65;;;15.32;;
66751;SDS011;53663;42.676;23.238;2023-03-23T03:24:05;29.88;;;18.85;;
66751;SDS011;53663;42.676;23.238;2023-03-23T03:26:37;30.42;;;18.85;;
66751;SDS011;53663;42.676;23.238;2023-03-23T03:29:25;28.67;;;17.73;;
66751;SDS011;53663;42.676;23.238;2023-03-23T03:31:56;27.40;;;17.02;;
66751;SDS011;53663;42.676;23.238;2023-03-23T03:34:25;25.57;;;17.00;;
66751;SDS011;53663;42.676;23.238;2023-03-23T03:36:52;28.95;;;17.90;;
66751;SDS011;53663;42.676;23.238;2023-03-23T03:39:21;33.80;;;19.63;;
66751;SDS011;53663;42.676;23.238;2023-03-23T03:41:47;36.10;;;21.35;;
66751;SDS011;53663;42.676;23.238;2023-03-23T03:44:13;35.42;;;21.98;;
66751;SDS011;53663;42.676;23.238;2023-03-23T03:46:40;34.90;;;19.50;;
66751;SDS011;53663;42.676;23.238;2023-03-23T03:49:06;39.15;;;22.80;;
66751;SDS011;53663;42.676;23.238;2023-03-23T03:51:36;38.63;;;20.92;;
66751;SDS011;53663;42.676;23.238;2023-03-23T03:54:03;34.25;;;20.00;;
66751;SDS011;53663;42.676;23.238;2023-03-23T03:56:29;37.75;;;20.90;;
66751;SDS011;53663;42.676;23.238;2023-03-23T03:59:09;42.67;;;22.60;;
66751;SDS011;53663;42.676;23.238;2023-03-23T04:01:59;42.08;;;23.92;;
66751;SDS011;53663;42.676;23.238;2023-03-23T04:04:25;123.43;;;21.98;;
66751;SDS011;53663;42.676;23.238;2023-03-23T04:06:51;45.17;;;21.80;;
66751;SDS011;53663;42.676;23.238;2023-03-23T04:09:16;106.20;;;21.90;;
66751;SDS011;53663;42.676;23.238;2023-03-23T04:11:42;179.45;;;23.73;;
66751;SDS011;53663;42.676;23.238;2023-03-23T04:14:43;248.88;;;24.35;;
66751;SDS011;53663;42.676;23.238;2023-03-23T04:17:08;166.13;;;24.83;;
66751;SDS011;53663;42.676;23.238;2023-03-23T04:19:35;229.80;;;23.90;;
66751;SDS011;53663;42.676;23.238;2023-03-23T04:22:02;58.97;;;23.23;;
66751;SDS011;53663;42.676;23.238;2023-03-23T04:24:30;42.60;;;22.08;;
66751;SDS011;53663;42.676;23.238;2023-03-23T04:26:58;44.72;;;21.85;;
66751;SDS011;53663;42.676;23.238;2023-03-23T04:29:27;32.47;;;19.40;;
66751;SDS011;53663;42.676;23.238;2023-03-23T04:32:27;31.45;;;19.13;;
66751;SDS011;53663;42.676;23.238;2023-03-23T04:34:55;33.58;;;19.40;;
66751;SDS011;53663;42.676;23.238;2023-03-23T04:37:27;30.92;;;18.17;;
66751;SDS011;53663;42.676;23.238;2023-03-23T04:39:59;28.83;;;16.55;;
66751;SDS011;53663;42.676;23.238;2023-03-23T04:42:27;26.92;;;18.83;;
66751;SDS011;53663;42.676;23.238;2023-03-23T04:45:13;29.10;;;18.27;;
66751;SDS011;53663;42.676;23.238;2023-03-23T04:47:41;26.63;;;16.75;;
66751;SDS011;53663;42.676;23.238;2023-03-23T04:50:17;28.35;;;17.63;;
66751;SDS011;53663;42.676;23.238;2023-03-23T04:52:46;25.52;;;16.17;;
66751;SDS011;53663;42.676;23.238;2023-03-23T04:55:13;26.48;;;15.70;;
66751;SDS011;53663;42.676;23.238;2023-03-23T04:57:43;26.38;;;16.85;;
66751;SDS011;53663;42.676;23.238;2023-03-23T05:00:33;26.98;;;16.60;;
66751;SDS011;53663;42.676;23.238;2023-03-23T05:03:01;29.80;;;16.80;;
66751;SDS011;53663;42.676;23.238;2023-03-23T05:05:28;39.08;;;17.67;;
66751;SDS011;53663;42.676;23.238;2023-03-23T05:07:56;32.42;;;18.55;;
66751;SDS011;53663;42.676;23.238;2023-03-23T05:10:24;37.03;;;19.65;;
66751;SDS011;53663;42.676;23.238;2023-03-23T05:12:52;34.55;;;21.23;;
66751;SDS011;53663;42.676;23.238;2023-03-23T05:15:18;36.00;;;21.60;;
66751;SDS011;53663;42.676;23.238;2023-03-23T05:17:44;32.92;;;21.33;;
66751;SDS011;53663;42.676;23.238;2023-03-23T05:20:14;35.38;;;21.10;;
66751;SDS011;53663;42.676;23.238;2023-03-23T05:22:46;34.33;;;20.75;;
66751;SDS011;53663;42.676;23.238;2023-03-23T05:25:20;37.70;;;21.77;;
66751;SDS011;53663;42.676;23.238;2023-03-23T05:27:50;34.63;;;20.77;;
66751;SDS011;53663;42.676;23.238;2023-03-23T05:30:52;38.20;;;23.20;;
66751;SDS011;53663;42.676;23.238;2023-03-23T05:33:20;45.60;;;23.55;;
66751;SDS011;53663;42.676;23.238;2023-03-23T05:35:50;36.88;;;22.98;;
66751;SDS011;53663;42.676;23.238;2023-03-23T05:38:21;36.30;;;22.20;;
66751;SDS011;53663;42.676;23.238;2023-03-23T05:40:47;43.83;;;23.58;;
66751;SDS011;53663;42.676;23.238;2023-03-23T05:43:16;33.03;;;21.42;;
66751;SDS011;53663;42.676;23.238;2023-03-23T05:46:00;41.70;;;23.90;;
66751;SDS011;53663;42.676;23.238;2023-03-23T05:48:26;36.50;;;23.13;;
66751;SDS011;53663;42.676;23.238;2023-03-23T05:50:52;38.20;;;22.77;;
66751;SDS011;53663;42.676;23.238;2023-03-23T05:53:21;41.63;;;23.48;;
66751;SDS011;53663;42.676;23.238;2023-03-23T05:55:46;48.78;;;27.75;;
66751;SDS011;53663;42.676;23.238;2023-03-23T05:58:35;41.83;;;25.90;;
66751;SDS011;53663;42.676;23.238;2023-03-23T06:01:05;46.10;;;27.20;;
66751;SDS011;53663;42.676;23.238;2023-03-23T06:03:31;47.25;;;26.65;;
66751;SDS011;53663;42.676;23.238;2023-03-23T06:06:03;48.67;;;25.25;;
66751;SDS011;53663;42.676;23.238;2023-03-23T06:08:47;39.35;;;23.77;;
66751;SDS011;53663;42.676;23.238;2023-03-23T06:11:16;49.42;;;27.02;;
66751;SDS011;53663;42.676;23.238;2023-03-23T06:13:52;41.65;;;25.90;;
66751;SDS011;53663;42.676;23.238;2023-03-23T06:16:18;40.90;;;24.38;;
66751;SDS011;53663;42.676;23.238;2023-03-23T06:18:55;43.50;;;24.92;;
66751;SDS011;53663;42.676;23.238;2023-03-23T06:21:27;44.00;;;25.73;;
66751;SDS011;53663;42.676;23.238;2023-03-23T06:23:57;51.42;;;26.83;;
66751;SDS011;53663;42.676;23.238;2023-03-23T06:26:28;44.90;;;26.55;;
66751;SDS011;53663;42.676;23.238;2023-03-23T06:28:59;41.97;;;25.67;;
66751;SDS011;53663;42.676;23.238;2023-03-23T06:31:27;45.38;;;24.05;;
66751;SDS011;53663;42.676;23.238;2023-03-23T06:33:53;41.90;;;24.13;;
66751;SDS011;53663;42.676;23.238;2023-03-23T06:36:25;40.75;;;24.00;;
66751;SDS011;53663;42.676;23.238;2023-03-23T06:39:17;35.97;;;22.83;;
66751;SDS011;53663;42.676;23.238;2023-03-23T06:41:54;41.75;;;25.00;;
66751;SDS011;53663;42.676;23.238;2023-03-23T06:44:24;42.53;;;24.83;;
66751;SDS011;53663;42.676;23.238;2023-03-23T06:46:53;35.08;;;22.60;;
66751;SDS011;53663;42.676;23.238;2023-03-23T06:49:27;33.97;;;20.98;;
66751;SDS011;53663;42.676;23.238;2023-03-23T06:52:13;31.52;;;20.42;;
66751;SDS011;53663;42.676;23.238;2023-03-23T06:54:39;38.42;;;24.67;;
66751;SDS011;53663;42.676;23.238;2023-03-23T06:57:05;34.42;;;20.90;;
66751;SDS011;53663;42.676;23.238;2023-03-23T06:59:31;33.33;;;20.27;;
66751;SDS011;53663;42.676;23.238;2023-03-23T07:01:57;28.13;;;17.92;;
66751;SDS011;53663;42.676;23.238;2023-03-23T07:04:23;28.13;;;18.23;;
66751;SDS011;53663;42.676;23.238;2023-03-23T07:07:09;28.58;;;17.35;;
66751;SDS011;53663;42.676;23.238;2023-03-23T07:09:44;25.33;;;17.35;;
66751;SDS011;53663;42.676;23.238;2023-03-23T07:12:10;29.10;;;18.13;;
66751;SDS011;53663;42.676;23.238;2023-03-23T07:14:42;27.63;;;17.83;;
66751;SDS011;53663;42.676;23.238;2023-03-23T07:17:08;28.35;;;19.15;;
66751;SDS011;53663;42.676;23.238;2023-03-23T07:19:38;35.78;;;17.80;;
66751;SDS011;53663;42.676;23.238;2023-03-23T07:22:04;26.77;;;16.77;;
66751;SDS011;53663;42.676;23.238;2023-03-23T07:24:31;25.40;;;16.52;;
66751;SDS011;53663;42.676;23.238;2023-03-23T07:27:08;24.73;;;15.95;;
66751;SDS011;53663;42.676;23.238;2023-03-23T07:29:36;25.42;;;16.45;;
66751;SDS011;53663;42.676;23.238;2023-03-23T07:32:10;30.67;;;18.02;;
66751;SDS011;53663;42.676;23.238;2023-03-23T07:34:37;25.58;;;17.23;;
66751;SDS011;53663;42.676;23.238;2023-03-23T07:37:14;29.45;;;18.63;;
66751;SDS011;53663;42.676;23.238;2023-03-23T07:39:45;31.10;;;19.92;;
66751;SDS011;53663;42.676;23.238;2023-03-23T07:42:12;36.72;;;20.40;;
66751;SDS011;53663;42.676;23.238;2023-03-23T07:44:46;31.45;;;19.15;;
66751;SDS011;53663;42.676;23.238;2023-03-23T07:47:12;31.70;;;17.48;;
66751;SDS011;53663;42.676;23.238;2023-03-23T07:49:38;24.15;;;16.73;;
66751;SDS011;53663;42.676;23.238;2023-03-23T07:52:27;25.50;;;16.75;;
66751;SDS011;53663;42.676;23.238;2023-03-23T07:54:53;23.05;;;15.18;;
66751;SDS011;53663;42.676;23.238;2023-03-23T07:57:33;24.60;;;15.20;;
66751;SDS011;53663;42.676;23.238;2023-03-23T07:59:59;23.45;;;16.83;;
66751;SDS011;53663;42.676;23.238;2023-03-23T08:02:26;22.02;;;15.20;;
66751;SDS011;53663;42.676;23.238;2023-03-23T08:05:12;28.42;;;16.88;;
66751;SDS011;53663;42.676;23.238;2023-03-23T08:08:01;27.07;;;15.80;;
66751;SDS011;53663;42.676;23.238;2023-03-23T08:10:47;24.00;;;15.68;;
66751;SDS011;53663;42.676;23.238;2023-03-23T08:13:24;24.48;;;14.18;;
66751;SDS011;53663;42.676;23.238;2023-03-23T08:16:08;22.65;;;14.60;;
66751;SDS011;53663;42.676;23.238;2023-03-23T08:18:57;31.05;;;14.68;;
66751;SDS011;53663;42.676;23.238;2023-03-23T08:21:41;28.65;;;14.95;;
66751;SDS011;53663;42.676;23.238;2023-03-23T08:24:16;18.50;;;12.57;;
66751;SDS011;53663;42.676;23.238;2023-03-23T08:26:56;16.23;;;11.50;;
66751;SDS011;53663;42.676;23.238;2023-03-23T08:29:37;20.63;;;12.15;;
66751;SDS011;53663;42.676;23.238;2023-03-23T08:32:42;21.63;;;13.30;;
66751;SDS011;53663;42.676;23.238;2023-03-23T08:35:54;26.48;;;13.48;;
66751;SDS011;53663;42.676;23.238;2023-03-23T08:38:45;19.10;;;12.52;;
66751;SDS011;53663;42.676;23.238;2023-03-23T08:41:36;19.35;;;12.02;;
66751;SDS011;53663;42.676;23.238;2023-03-23T08:44:15;18.35;;;11.68;;
66751;SDS011;53663;42.676;23.238;2023-03-23T08:46:59;15.48;;;10.77;;
66751;SDS011;53663;42.676;23.238;2023-03-23T08:49:40;19.70;;;12.13;;
66751;SDS011;53663;42.676;23.238;2023-03-23T08:52:23;10.45;;;7.43;;
66751;SDS011;53663;42.676;23.238;2023-03-23T08:55:08;14.15;;;8.52;;
66751;SDS011;53663;42.676;23.238;2023-03-23T08:58:06;20.55;;;11.25;;
66751;SDS011;53663;42.676;23.238;2023-03-23T09:00:54;9.23;;;5.93;;
66751;SDS011;53663;42.676;23.238;2023-03-23T09:03:49;11.88;;;6.90;;
66751;SDS011;53663;42.676;23.238;2023-03-23T09:06:21;12.98;;;6.60;;
66751;SDS011;53663;42.676;23.238;2023-03-23T09:08:47;9.27;;;6.60;;
66751;SDS011;53663;42.676;23.238;2023-03-23T09:11:13;9.60;;;6.25;;
66751;SDS011;53663;42.676;23.238;2023-03-23T09:13:39;9.00;;;6.40;;
66751;SDS011;53663;42.676;23.238;2023-03-23T09:16:05;9.07;;;6.47;;
66751;SDS011;53663;42.676;23.238;2023-03-23T09:18:32;9.43;;;5.85;;
66751;SDS011;53663;42.676;23.238;2023-03-23T09:20:58;8.85;;;6.30;;
66751;SDS011;53663;42.676;23.238;2023-03-23T09:23:24;11.35;;;6.28;;
66751;SDS011;53663;42.676;23.238;2023-03-23T09:25:50;9.98;;;6.70;;
66751;SDS011;53663;42.676;23.238;2023-03-23T09:28:17;9.75;;;6.82;;
66751;SDS011;53663;42.676;23.238;2023-03-23T09:30:43;11.52;;;7.60;;
66751;SDS011;53663;42.676;23.238;2023-03-23T09:33:10;18.65;;;7.05;;
66751;SDS011;53663;42.676;23.238;2023-03-23T09:35:36;10.50;;;7.28;;
66751;SDS011;53663;42.676;23.238;2023-03-23T09:38:03;10.25;;;6.43;;
66751;SDS011;53663;42.676;23.238;2023-03-23T09:40:32;13.10;;;8.52;;
66751;SDS011;53663;42.676;23.238;2023-03-23T09:53:54;8.73;;;5.88;;
66751;SDS011;53663;42.676;23.238;2023-03-23T09:56:25;10.18;;;5.97;;
66751;SDS011;53663;42.676;23.238;2023-03-23T09:58:57;10.93;;;6.15;;
66751;SDS011;53663;42.676;23.238;2023-03-23T10:01:27;9.93;;;6.38;;
66751;SDS011;53663;42.676;23.238;2023-03-23T10:04:22;10.07;;;6.38;;
66751;SDS011;53663;42.676;23.238;2023-03-23T10:06:58;8.80;;;6.00;;
66751;SDS011;53663;42.676;23.238;2023-03-23T10:09:26;10.10;;;6.25;;
66751;SDS011;53663;42.676;23.238;2023-03-23T10:12:00;11.18;;;6.55;;
66751;SDS011;53663;42.676;23.238;2023-03-23T10:17:17;13.48;;;6.47;;
66751;SDS011;53663;42.676;23.238;2023-03-23T10:19:52;12.73;;;6.72;;
66751;SDS011;53663;42.676;23.238;2023-03-23T10:22:47;9.93;;;5.95;;
66751;SDS011;53663;42.676;23.238;2023-03-23T10:25:21;9.30;;;6.40;;
66751;SDS011;53663;42.676;23.238;2023-03-23T10:27:56;17.60;;;6.88;;
66751;SDS011;53663;42.676;23.238;2023-03-23T10:30:33;11.98;;;6.20;;
66751;SDS011;53663;42.676;23.238;2023-03-23T10:33:02;15.38;;;6.15;;
66751;SDS011;53663;42.676;23.238;2023-03-23T10:35:30;15.63;;;10.65;;
66751;SDS011;53663;42.676;23.238;2023-03-23T10:38:04;12.38;;;7.22;;
66751;SDS011;53663;42.676;23.238;2023-03-23T10:40:43;12.88;;;8.18;;
66751;SDS011;53663;42.676;23.238;2023-03-23T10:43:16;14.10;;;6.10;;
66751;SDS011;53663;42.676;23.238;2023-03-23T10:45:42;7.43;;;5.50;;
66751;SDS011;53663;42.676;23.238;2023-03-23T10:48:13;8.85;;;5.40;;
66751;SDS011;53663;42.676;23.238;2023-03-23T10:51:02;9.68;;;6.32;;
66751;SDS011;53663;42.676;23.238;2023-03-23T10:53:36;9.73;;;5.85;;
66751;SDS011;53663;42.676;23.238;2023-03-23T10:58:54;8.55;;;5.60;;
66751;SDS011;53663;42.676;23.238;2023-03-23T11:01:27;10.07;;;5.47;;
66751;SDS011;53663;42.676;23.238;2023-03-23T11:03:55;7.55;;;5.43;;
66751;SDS011;53663;42.676;23.238;2023-03-23T11:06:26;9.63;;;5.90;;
66751;SDS011;53663;42.676;23.238;2023-03-23T11:09:09;9.95;;;6.63;;
66751;SDS011;53663;42.676;23.238;2023-03-23T11:11:38;8.30;;;5.78;;
66751;SDS011;53663;42.676;23.238;2023-03-23T11:14:24;9.52;;;5.82;;
66751;SDS011;53663;42.676;23.238;2023-03-23T11:17:03;8.40;;;5.75;;
66751;SDS011;53663;42.676;23.238;2023-03-23T11:19:32;11.18;;;6.15;;
66751;SDS011;53663;42.676;23.238;2023-03-23T11:24:30;7.32;;;5.22;;
66751;SDS011;53663;42.676;23.238;2023-03-23T11:26:58;7.07;;;5.22;;
66751;SDS011;53663;42.676;23.238;2023-03-23T11:29:25;7.05;;;4.68;;
66751;SDS011;53663;42.676;23.238;2023-03-23T11:34:29;8.98;;;5.35;;
66751;SDS011;53663;42.676;23.238;2023-03-23T11:37:24;7.25;;;5.22;;
66751;SDS011;53663;42.676;23.238;2023-03-23T11:39:58;6.82;;;4.90;;
66751;SDS011;53663;42.676;23.238;2023-03-23T11:48:13;10.45;;;6.43;;
66751;SDS011;53663;42.676;23.238;2023-03-23T11:50:51;8.18;;;5.65;;
66751;SDS011;53663;42.676;23.238;2023-03-23T11:58:46;7.63;;;5.15;;
66751;SDS011;53663;42.676;23.238;2023-03-23T12:01:46;8.50;;;5.78;;
66751;SDS011;53663;42.676;23.238;2023-03-23T12:04:41;7.47;;;5.07;;
66751;SDS011;53663;42.676;23.238;2023-03-23T12:07:32;8.18;;;5.82;;
66751;SDS011;53663;42.676;23.238;2023-03-23T12:10:41;9.25;;;5.70;;
66751;SDS011;53663;42.676;23.238;2023-03-23T12:35:48;7.25;;;5.03;;
66751;SDS011;53663;42.676;23.238;2023-03-23T12:43:28;7.18;;;4.97;;
66751;SDS011;53663;42.676;23.238;2023-03-23T12:49:01;7.63;;;5.53;;
66751;SDS011;53663;42.676;23.238;2023-03-23T12:51:53;7.65;;;5.68;;
66751;SDS011;53663;42.676;23.238;2023-03-23T13:02:29;7.05;;;4.68;;
66751;SDS011;53663;42.676;23.238;2023-03-23T13:05:05;10.18;;;4.90;;
66751;SDS011;53663;42.676;23.238;2023-03-23T13:07:37;8.15;;;5.32;;
66751;SDS011;53663;42.676;23.238;2023-03-23T13:10:23;9.95;;;5.63;;
66751;SDS011;53663;42.676;23.238;2023-03-23T13:12:52;9.45;;;5.10;;
66751;SDS011;53663;42.676;23.238;2023-03-23T13:23:22;7.13;;;4.97;;
66751;SDS011;53663;42.676;23.238;2023-03-23T13:25:59;5.32;;;3.70;;
66751;SDS011;53663;42.676;23.238;2023-03-23T13:28:28;4.47;;;3.47;;
66751;SDS011;53663;42.676;23.238;2023-03-23T13:33:24;6.97;;;3.97;;
66751;SDS011;53663;42.676;23.238;2023-03-23T13:35:50;5.88;;;4.10;;
66751;SDS011;53663;42.676;23.238;2023-03-23T13:38:21;6.50;;;4.18;;
66751;SDS011;53663;42.676;23.238;2023-03-23T13:40:48;6.65;;;4.30;;
66751;SDS011;53663;42.676;23.238;2023-03-23T13:43:18;6.43;;;4.30;;
66751;SDS011;53663;42.676;23.238;2023-03-23T13:45:52;9.15;;;4.72;;
66751;SDS011;53663;42.676;23.238;2023-03-23T13:48:20;7.65;;;4.35;;
66751;SDS011;53663;42.676;23.238;2023-03-23T13:50:52;13.15;;;3.83;;
66751;SDS011;53663;42.676;23.238;2023-03-23T13:53:24;8.90;;;4.47;;
66751;SDS011;53663;42.676;23.238;2023-03-23T13:58:45;10.20;;;4.22;;
66751;SDS011;53663;42.676;23.238;2023-03-23T14:01:14;7.35;;;3.95;;
66751;SDS011;53663;42.676;23.238;2023-03-23T14:03:42;8.02;;;4.60;;
66751;SDS011;53663;42.676;23.238;2023-03-23T14:06:15;6.90;;;4.60;;
66751;SDS011;53663;42.676;23.238;2023-03-23T14:09:05;7.03;;;4.30;;
66751;SDS011;53663;42.676;23.238;2023-03-23T14:11:45;9.55;;;4.13;;
66751;SDS011;53663;42.676;23.238;2023-03-23T14:14:39;8.13;;;4.18;;
66751;SDS011;53663;42.676;23.238;2023-03-23T14:17:17;6.43;;;4.20;;
66751;SDS011;53663;42.676;23.238;2023-03-23T14:19:53;7.05;;;4.47;;
66751;SDS011;53663;42.676;23.238;2023-03-23T14:22:32;9.02;;;3.97;;
66751;SDS011;53663;42.676;23.238;2023-03-23T14:25:02;5.55;;;4.10;;
66751;SDS011;53663;42.676;23.238;2023-03-23T14:27:36;6.82;;;4.30;;
66751;SDS011;53663;42.676;23.238;2023-03-23T14:30:06;10.02;;;4.20;;
66751;SDS011;53663;42.676;23.238;2023-03-23T14:32:33;6.28;;;4.05;;
66751;SDS011;53663;42.676;23.238;2023-03-23T14:35:04;6.07;;;3.95;;
66751;SDS011;53663;42.676;23.238;2023-03-23T14:37:32;7.70;;;4.30;;
66751;SDS011;53663;42.676;23.238;2023-03-23T14:40:00;10.73;;;4.88;;
66751;SDS011;53663;42.676;23.238;2023-03-23T14:42:30;10.20;;;4.63;;
66751;SDS011;53663;42.676;23.238;2023-03-23T14:44:59;8.00;;;4.47;;
66751;SDS011;53663;42.676;23.238;2023-03-23T14:47:26;8.55;;;5.10;;
66751;SDS011;53663;42.676;23.238;2023-03-23T14:49:56;7.25;;;4.00;;
66751;SDS011;53663;42.676;23.238;2023-03-23T14:52:27;10.20;;;4.25;;
66751;SDS011;53663;42.676;23.238;2023-03-23T14:55:07;10.65;;;4.10;;
66751;SDS011;53663;42.676;23.238;2023-03-23T14:57:41;6.55;;;4.30;;
66751;SDS011;53663;42.676;23.238;2023-03-23T15:02:44;6.22;;;3.72;;
66751;SDS011;53663;42.676;23.238;2023-03-23T15:05:13;9.75;;;4.18;;
66751;SDS011;53663;42.676;23.238;2023-03-23T15:07:45;9.07;;;3.97;;
66751;SDS011;53663;42.676;23.238;2023-03-23T15:10:16;9.38;;;4.40;;
66751;SDS011;53663;42.676;23.238;2023-03-23T15:12:45;6.53;;;4.20;;
66751;SDS011;53663;42.676;23.238;2023-03-23T15:15:25;8.48;;;4.57;;
66751;SDS011;53663;42.676;23.238;2023-03-23T15:17:51;6.60;;;4.60;;
66751;SDS011;53663;42.676;23.238;2023-03-23T15:20:22;8.52;;;4.70;;
66751;SDS011;53663;42.676;23.238;2023-03-23T15:22:50;7.95;;;4.40;;
66751;SDS011;53663;42.676;23.238;2023-03-23T15:25:29;13.60;;;5.30;;
66751;SDS011;53663;42.676;23.238;2023-03-23T15:28:17;11.85;;;5.13;;
66751;SDS011;53663;42.676;23.238;2023-03-23T15:30:46;8.05;;;4.88;;
66751;SDS011;53663;42.676;23.238;2023-03-23T15:33:21;10.80;;;5.32;;
66751;SDS011;53663;42.676;23.238;2023-03-23T15:35:52;7.97;;;5.13;;
66751;SDS011;53663;42.676;23.238;2023-03-23T15:38:26;8.48;;;5.15;;
66751;SDS011;53663;42.676;23.238;2023-03-23T15:40:57;10.13;;;5.22;;
66751;SDS011;53663;42.676;23.238;2023-03-23T15:51:19;10.00;;;4.60;;
66751;SDS011;53663;42.676;23.238;2023-03-23T15:53:46;7.78;;;4.50;;
66751;SDS011;53663;42.676;23.238;2023-03-23T15:56:12;12.10;;;5.47;;
66751;SDS011;53663;42.676;23.238;2023-03-23T15:58:38;6.78;;;4.22;;
66751;SDS011;53663;42.676;23.238;2023-03-23T16:01:06;8.02;;;4.85;;
66751;SDS011;53663;42.676;23.238;2023-03-23T16:06:10;7.60;;;4.90;;
66751;SDS011;53663;42.676;23.238;2023-03-23T16:08:37;10.07;;;5.03;;
66751;SDS011;53663;42.676;23.238;2023-03-23T16:11:14;8.75;;;4.00;;
66751;SDS011;53663;42.676;23.238;2023-03-23T16:13:41;7.85;;;5.43;;
66751;SDS011;53663;42.676;23.238;2023-03-23T16:16:14;13.05;;;5.43;;
66751;SDS011;53663;42.676;23.238;2023-03-23T16:18:42;8.13;;;5.30;;
66751;SDS011;53663;42.676;23.238;2023-03-23T16:21:08;13.15;;;5.80;;
66751;SDS011;53663;42.676;23.238;2023-03-23T16:23:34;15.63;;;5.65;;
66751;SDS011;53663;42.676;23.238;2023-03-23T16:25:59;11.57;;;6.00;;
66751;SDS011;53663;42.676;23.238;2023-03-23T16:28:25;12.07;;;5.28;;
66751;SDS011;53663;42.676;23.238;2023-03-23T16:30:51;9.68;;;5.90;;
66751;SDS011;53663;42.676;23.238;2023-03-23T16:33:16;14.98;;;7.18;;
66751;SDS011;53663;42.676;23.238;2023-03-23T16:35:42;12.13;;;6.72;;
66751;SDS011;53663;42.676;23.238;2023-03-23T16:38:17;15.75;;;8.30;;